Time;durP1;ratioP1;P1;durP2;ratioP2;P2;SDS_P1;SDS_P2;PMS_P1;PMS_P2;Temp;Humidity;BMP_temperature;BMP_pressure;BME280_temperature;BME280_humidity;BME280_pressure;Samples;Min_cycle;Max_cycle;Signal;HPM_P1;HPM_P2
2022/05/18 00:00:28;;;;;;;17.70;11.73;;;;;;;15.14;97.13;101956.19;7376175;19;20014;-75
2022/05/18 00:03:06;;;;;;;20.63;12.60;;;;;;;15.10;98.15;101959.66;7373717;19;20040;-75
2022/05/18 00:05:37;;;;;;;20.02;11.82;;;;;;;15.08;96.85;101956.13;7379486;19;20014;-75
2022/05/18 00:08:08;;;;;;;17.27;11.95;;;;;;;15.06;97.07;101960.50;7379854;19;20015;-75
2022/05/18 00:10:43;;;;;;;21.98;12.40;;;;;;;15.03;97.49;101958.72;7380423;19;20477;-75
2022/05/18 00:13:16;;;;;;;19.70;12.10;;;;;;;14.97;97.86;101965.66;7379075;19;20040;-76
2022/05/18 00:15:48;;;;;;;20.02;13.35;;;;;;;14.90;98.45;101969.09;7376672;19;20018;-76
2022/05/18 00:18:18;;;;;;;22.63;12.68;;;;;;;14.89;97.75;101962.91;7374672;19;20058;-75
2022/05/18 00:20:48;;;;;;;17.60;11.23;;;;;;;14.89;98.29;101976.13;7375606;19;20029;-75
2022/05/18 00:23:18;;;;;;;19.63;12.00;;;;;;;14.89;98.64;101969.97;7374995;19;20021;-75
2022/05/18 00:25:48;;;;;;;20.45;13.05;;;;;;;14.90;100.00;101967.34;7376688;19;20010;-76
2022/05/18 00:28:21;;;;;;;20.40;12.85;;;;;;;14.90;100.00;101971.72;7377152;19;20036;-75
2022/05/18 00:30:54;;;;;;;19.35;13.18;;;;;;;14.90;100.00;101971.72;7375007;19;20488;-76
2022/05/18 00:33:24;;;;;;;21.63;13.30;;;;;;;14.88;100.00;101963.78;7376918;19;20221;-75
2022/05/18 00:35:54;;;;;;;23.58;14.10;;;;;;;14.87;100.00;101966.41;7376384;19;20646;-75
2022/05/18 00:38:24;;;;;;;22.65;13.60;;;;;;;14.91;100.00;101957.66;7375396;19;20684;-76
2022/05/18 00:40:58;;;;;;;22.93;15.27;;;;;;;14.92;100.00;101951.50;7377563;19;20011;-76
2022/05/18 00:43:43;;;;;;;24.58;14.65;;;;;;;14.95;100.00;101959.47;7384696;19;20784;-76
2022/05/18 00:46:16;;;;;;;23.35;14.35;;;;;;;14.96;100.00;101958.59;7382248;19;20010;-77
2022/05/18 00:48:53;;;;;;;23.02;14.68;;;;;;;14.92;100.00;101955.03;7378116;19;20050;-79
2022/05/18 00:51:29;;;;;;;23.88;15.98;;;;;;;14.94;100.00;101955.06;7375744;19;20013;-77
2022/05/18 00:54:05;;;;;;;21.67;14.80;;;;;;;14.90;100.00;101956.78;7376647;19;20014;-77
2022/05/18 00:56:38;;;;;;;22.55;16.35;;;;;;;14.88;100.00;101952.34;7381913;19;20010;-77
2022/05/18 00:59:14;;;;;;;23.13;15.13;;;;;;;14.90;100.00;101945.31;7378477;19;20014;-76
2022/05/18 01:01:45;;;;;;;24.17;15.38;;;;;;;14.95;100.00;101956.84;7375311;19;20014;-75
2022/05/18 01:04:17;;;;;;;23.23;15.90;;;;;;;14.91;100.00;101953.25;7377533;19;20010;-76
2022/05/18 01:06:52;;;;;;;25.70;15.35;;;;;;;14.91;100.00;101952.38;7380098;19;20359;-76
2022/05/18 01:09:26;;;;;;;28.02;16.65;;;;;;;14.93;100.00;101954.16;7373288;19;20022;-75
2022/05/18 01:11:56;;;;;;;25.23;15.80;;;;;;;14.93;100.00;101958.56;7377872;19;20014;-75
2022/05/18 01:14:32;;;;;;;27.30;16.17;;;;;;;14.93;100.00;101959.47;7380954;19;20011;-75
2022/05/18 01:17:03;;;;;;;27.45;17.02;;;;;;;14.92;100.00;101959.44;7376001;19;20046;-77
2022/05/18 01:19:37;;;;;;;24.65;15.55;;;;;;;14.90;100.00;101947.97;7373341;19;20006;-77
2022/05/18 01:22:20;;;;;;;27.00;16.35;;;;;;;14.88;100.00;101949.69;7374464;19;20121;-75
2022/05/18 01:25:01;;;;;;;26.98;16.90;;;;;;;14.86;100.00;101948.78;7374466;19;20017;-77
2022/05/18 01:27:35;;;;;;;25.95;15.63;;;;;;;14.82;100.00;101952.25;7373193;19;20315;-77
2022/05/18 01:30:08;;;;;;;25.05;15.57;;;;;;;14.81;100.00;101956.66;7375373;19;20011;-77
2022/05/18 01:32:45;;;;;;;27.58;15.75;;;;;;;14.81;100.00;101947.84;7373582;19;20037;-76
2022/05/18 01:35:20;;;;;;;28.17;15.88;;;;;;;14.80;100.00;101948.69;7375778;19;20030;-75
2022/05/18 01:37:51;;;;;;;28.20;16.77;;;;;;;14.76;100.00;101950.41;7374373;19;20010;-76
2022/05/18 01:40:30;;;;;;;30.27;16.10;;;;;;;14.71;100.00;101937.16;7375433;19;20010;-75
2022/05/18 01:43:13;;;;;;;25.65;15.70;;;;;;;14.72;100.00;101945.97;7377757;19;20016;-76
2022/05/18 01:45:44;;;;;;;29.80;16.67;;;;;;;14.73;100.00;101950.38;7371806;19;20017;-78
2022/05/18 01:48:16;;;;;;;30.95;19.95;;;;;;;14.73;100.00;101948.63;7374412;19;20077;-76
2022/05/18 01:50:46;;;;;;;27.35;16.55;;;;;;;14.77;100.00;101943.38;7373868;19;20513;-75
2022/05/18 01:53:16;;;;;;;29.52;17.60;;;;;;;14.77;100.00;101939.00;7370011;19;20014;-75
2022/05/18 01:55:47;;;;;;;31.10;16.77;;;;;;;14.76;100.00;101937.22;7373738;19;20043;-75
2022/05/18 01:58:19;;;;;;;27.63;17.60;;;;;;;14.76;100.00;101938.97;7373105;19;20014;-75
2022/05/18 02:00:49;;;;;;;26.17;17.33;;;;;;;14.77;100.00;101938.09;7371372;19;20010;-77
2022/05/18 02:03:25;;;;;;;29.73;19.27;;;;;;;14.75;100.00;101939.84;7365316;19;20010;-74
2022/05/18 02:06:00;;;;;;;33.33;18.67;;;;;;;14.73;100.00;101935.41;7369967;19;20021;-75
2022/05/18 02:08:37;;;;;;;31.05;19.23;;;;;;;14.73;100.00;101932.78;7372352;19;20078;-75
2022/05/18 02:11:22;;;;;;;27.83;17.55;;;;;;;14.72;100.00;101936.28;7373007;19;20011;-75
2022/05/18 02:13:57;;;;;;;33.08;18.77;;;;;;;14.71;100.00;101929.22;7371697;19;20003;-76
2022/05/18 02:16:27;;;;;;;28.23;17.85;;;;;;;14.72;100.00;101924.84;7369634;19;20683;-75
2022/05/18 02:18:57;;;;;;;28.80;18.77;;;;;;;14.71;100.00;101928.34;7371193;19;20094;-76
2022/05/18 02:21:27;;;;;;;30.60;19.55;;;;;;;14.69;100.00;101928.31;7373097;19;20402;-78
2022/05/18 02:23:59;;;;;;;31.00;18.98;;;;;;;14.69;100.00;101944.16;7372375;19;20022;-75
2022/05/18 02:26:29;;;;;;;30.45;18.25;;;;;;;14.69;100.00;101941.53;7371852;19;20022;-77
2022/05/18 02:29:02;;;;;;;28.92;17.65;;;;;;;14.68;100.00;101938.84;7368936;19;20010;-75
2022/05/18 02:31:33;;;;;;;29.85;17.98;;;;;;;14.71;100.00;101955.63;7373095;19;20018;-75
2022/05/18 02:34:33;;;;;;;27.38;17.95;;;;;;;14.71;100.00;101953.00;7369771;19;20014;-76
2022/05/18 02:37:10;;;;;;;29.33;18.10;;;;;;;14.70;100.00;101961.78;7372478;19;20078;-73
2022/05/18 02:40:01;;;;;;;29.50;16.73;;;;;;;14.68;100.00;101954.69;7369331;19;20370;-75
2022/05/18 02:43:05;;;;;;;27.05;16.48;;;;;;;14.66;100.00;101962.59;7367476;19;20010;-74
2022/05/18 02:45:53;;;;;;;27.33;18.55;;;;;;;14.62;100.00;101966.06;7370708;19;20033;-75
2022/05/18 02:48:34;;;;;;;31.02;16.73;;;;;;;14.62;100.00;101970.44;7370106;19;20017;-75
2022/05/18 02:51:26;;;;;;;31.23;17.25;;;;;;;14.63;100.00;101966.94;7377380;19;20042;-75
2022/05/18 02:54:00;;;;;;;24.80;15.68;;;;;;;14.66;100.00;101965.25;7363083;19;20033;-75
2022/05/18 02:56:48;;;;;;;29.30;18.02;;;;;;;14.68;100.00;101968.78;7374180;19;20010;-75
2022/05/18 02:59:19;;;;;;;25.25;16.98;;;;;;;14.66;100.00;101967.88;7372340;19;20014;-76
2022/05/18 03:01:53;;;;;;;28.73;17.05;;;;;;;14.67;100.00;101974.94;7368714;19;20014;-76
2022/05/18 03:04:23;;;;;;;27.63;17.00;;;;;;;14.71;100.00;101989.06;7370686;19;20017;-76
2022/05/18 03:06:54;;;;;;;30.08;18.05;;;;;;;14.74;100.00;101997.03;7370476;19;20506;-76
2022/05/18 03:09:28;;;;;;;31.15;19.58;;;;;;;14.78;100.00;102008.53;7369276;19;20014;-76
2022/05/18 03:12:02;;;;;;;33.63;18.52;;;;;;;14.82;100.00;101997.16;7371041;19;20013;-75
2022/05/18 03:14:32;;;;;;;;;;;;;;;14.90;100.00;102003.44;7378858;19;20026;-75
2022/05/18 03:17:06;;;;;;;28.88;18.40;;;;;;;14.90;100.00;101998.16;7379352;19;19918;-75
2022/05/18 03:19:36;;;;;;;32.83;18.50;;;;;;;14.95;100.00;102000.00;7381020;19;20015;-74
2022/05/18 03:24:49;;;;;;;31.73;19.58;;;;;;;14.96;100.00;102003.50;7376848;19;20074;-76
2022/05/18 03:27:23;;;;;;;35.95;19.52;;;;;;;15.00;100.00;102003.59;7379664;19;20007;-76
2022/05/18 03:29:57;;;;;;;34.25;19.13;;;;;;;15.03;100.00;102002.72;7375453;19;20036;-75
2022/05/18 03:32:30;;;;;;;32.42;18.88;;;;;;;15.02;100.00;102004.50;7375160;19;20006;-75
2022/05/18 03:35:03;;;;;;;35.72;20.58;;;;;;;15.09;100.00;101997.53;7376752;19;20036;-75
2022/05/18 03:37:36;;;;;;;33.28;18.63;;;;;;;15.10;100.00;102009.88;7380446;19;20007;-75
2022/05/18 03:40:09;;;;;;;32.97;19.80;;;;;;;15.08;100.00;102003.69;7381785;19;20014;-74
2022/05/18 03:42:39;;;;;;;30.27;18.15;;;;;;;15.03;100.00;102002.72;7381034;19;20007;-75
2022/05/18 03:45:10;;;;;;;32.80;18.38;;;;;;;15.01;100.00;102007.09;7379873;19;20018;-75
2022/05/18 03:47:44;;;;;;;30.70;18.02;;;;;;;14.97;100.00;102005.28;7376120;19;20336;-75
2022/05/18 03:50:14;;;;;;;35.95;19.75;;;;;;;15.02;100.00;102004.50;7380298;19;20018;-76
2022/05/18 03:52:44;;;;;;;32.00;18.70;;;;;;;15.00;100.00;102013.25;7370203;19;20341;-74
2022/05/18 03:55:14;;;;;;;30.48;17.88;;;;;;;15.01;100.00;102002.72;7377982;19;20352;-75
2022/05/18 03:57:44;;;;;;;28.95;17.92;;;;;;;15.01;100.00;102018.56;7377485;19;20015;-75
2022/05/18 04:00:15;;;;;;;30.15;18.67;;;;;;;15.02;100.00;102020.34;7378682;19;20486;-75
2022/05/18 04:02:48;;;;;;;32.53;20.08;;;;;;;15.01;100.00;102013.28;7375631;19;20007;-76
2022/05/18 04:05:21;;;;;;;32.25;18.58;;;;;;;15.02;100.00;102019.44;7378123;19;20029;-75
2022/05/18 04:07:51;;;;;;;33.47;17.97;;;;;;;15.05;100.00;102030.06;7375427;19;20482;-76
2022/05/18 04:10:22;;;;;;;33.88;19.13;;;;;;;15.08;100.00;102030.09;7379363;19;20017;-76
2022/05/18 04:12:52;;;;;;;39.17;21.08;;;;;;;15.13;100.00;102022.25;7375078;19;20014;-76
2022/05/18 04:15:23;;;;;;;38.13;21.38;;;;;;;15.16;100.00;102015.25;7378581;19;20048;-74
2022/05/18 04:17:58;;;;;;;30.98;18.45;;;;;;;15.22;100.00;102012.69;7378521;19;20082;-74
2022/05/18 04:20:28;;;;;;;31.15;19.98;;;;;;;15.32;100.00;102019.84;7378857;19;20048;-75
2022/05/18 04:22:59;;;;;;;39.60;22.02;;;;;;;15.44;100.00;102016.47;7376784;19;20028;-74
2022/05/18 04:25:31;;;;;;;39.30;21.00;;;;;;;15.56;100.00;102013.97;7375140;19;20468;-74
2022/05/18 04:28:01;;;;;;;32.78;18.95;;;;;;;15.61;100.00;102014.91;7375781;19;20025;-75
2022/05/18 04:30:36;;;;;;;36.35;20.83;;;;;;;15.69;100.00;102025.59;7377904;19;20085;-75
2022/05/18 04:33:13;;;;;;;34.92;21.45;;;;;;;15.79;100.00;102026.56;7371633;19;20003;-75
2022/05/18 04:35:45;;;;;;;37.42;21.80;;;;;;;15.84;100.00;102030.16;7376911;19;20010;-75
2022/05/18 04:38:15;;;;;;;31.73;21.25;;;;;;;15.96;100.00;102031.16;7375686;19;20352;-74
2022/05/18 04:40:49;;;;;;;34.85;21.20;;;;;;;15.98;100.00;102029.41;7372948;19;20011;-74
2022/05/18 04:43:20;;;;;;;35.20;20.90;;;;;;;16.08;99.88;102038.34;7375469;19;20010;-75
2022/05/18 04:45:55;;;;;;;37.90;21.52;;;;;;;16.12;99.68;102039.25;7375325;19;20014;-74
2022/05/18 04:48:31;;;;;;;36.80;20.77;;;;;;;16.17;100.00;102046.38;7375990;19;20016;-74
2022/05/18 04:51:05;;;;;;;30.50;19.08;;;;;;;16.22;100.00;102047.28;7375559;19;20014;-75
2022/05/18 04:53:37;;;;;;;41.40;21.85;;;;;;;16.34;99.82;102049.16;7369948;19;20018;-75
2022/05/18 04:56:08;;;;;;;36.90;21.95;;;;;;;16.36;99.66;102052.72;7377197;19;20007;-74
2022/05/18 04:58:39;;;;;;;41.95;22.27;;;;;;;16.49;99.10;102053.72;7374661;19;20011;-75
2022/05/18 05:01:12;;;;;;;34.72;20.02;;;;;;;16.53;99.03;102050.22;7373439;19;20047;-75
2022/05/18 05:03:45;;;;;;;32.75;20.23;;;;;;;16.55;99.27;102049.34;7370878;19;20014;-75
2022/05/18 05:06:15;;;;;;;41.07;22.33;;;;;;;16.65;98.32;102051.19;7379572;19;20053;-76
2022/05/18 05:08:46;;;;;;;35.90;22.17;;;;;;;16.70;98.79;102051.22;7375393;19;20513;-75
2022/05/18 05:11:17;;;;;;;38.65;21.73;;;;;;;16.79;98.82;102058.34;7375577;19;20014;-76
2022/05/18 05:13:47;;;;;;;32.75;21.67;;;;;;;16.87;98.70;102056.66;7375493;19;20006;-76
2022/05/18 05:16:17;;;;;;;34.58;20.85;;;;;;;16.97;98.52;102056.72;7373960;19;20011;-75
2022/05/18 05:18:52;;;;;;;39.70;23.40;;;;;;;17.11;97.81;102063.88;7372591;19;20035;-75
2022/05/18 05:21:22;;;;;;;38.05;21.27;;;;;;;17.21;97.94;102066.59;7372537;19;20015;-76
2022/05/18 05:23:52;;;;;;;34.70;19.85;;;;;;;17.31;97.67;102075.47;7372976;19;20583;-76
2022/05/18 05:26:22;;;;;;;33.63;19.15;;;;;;;17.42;97.37;102080.84;7372939;19;20010;-76
2022/05/18 05:28:52;;;;;;;29.70;18.13;;;;;;;17.58;96.51;102080.03;7371028;19;20034;-75
2022/05/18 05:31:22;;;;;;;26.85;15.57;;;;;;;17.62;96.38;102072.09;7375423;19;20015;-75
2022/05/18 05:33:55;;;;;;;26.02;15.80;;;;;;;17.67;97.08;102076.56;7371350;19;20021;-76
2022/05/18 05:36:25;;;;;;;26.73;15.27;;;;;;;17.72;97.22;102077.41;7372065;19;20006;-74
2022/05/18 05:38:55;;;;;;;24.77;13.65;;;;;;;17.74;97.28;102076.53;7371815;19;20297;-75
2022/05/18 05:41:27;;;;;;;28.15;14.70;;;;;;;17.82;97.62;102084.53;7375795;19;20129;-75
2022/05/18 05:43:58;;;;;;;21.95;13.75;;;;;;;17.89;97.22;102091.63;7373934;19;20511;-75
2022/05/18 05:46:29;;;;;;;23.58;13.60;;;;;;;17.90;97.47;102086.34;7374766;19;20015;-74
2022/05/18 05:49:02;;;;;;;20.90;13.88;;;;;;;17.89;98.24;102089.88;7372740;19;20437;-75
2022/05/18 05:51:32;;;;;;;22.27;13.50;;;;;;;17.92;98.24;102102.25;7375070;19;20051;-75
2022/05/18 05:54:02;;;;;;;22.38;14.57;;;;;;;17.93;98.83;102114.66;7363797;19;20014;-74
2022/05/18 05:56:33;;;;;;;22.77;14.02;;;;;;;17.90;98.59;102104.03;7372219;19;20014;-75
2022/05/18 05:59:03;;;;;;;20.23;12.32;;;;;;;17.93;98.65;102110.22;7374508;19;20015;-75
2022/05/18 06:01:33;;;;;;;20.92;11.52;;;;;;;17.76;98.58;102116.34;7378147;19;20035;-74
2022/05/18 06:04:07;;;;;;;17.35;10.85;;;;;;;18.18;97.56;102120.91;7378455;19;20018;-75
2022/05/18 06:06:39;;;;;;;20.95;10.93;;;;;;;18.23;97.06;102127.13;7380436;19;20017;-75
2022/05/18 06:09:10;;;;;;;20.30;11.00;;;;;;;18.30;97.26;102134.22;7379512;19;20077;-75
2022/05/18 06:11:40;;;;;;;19.58;11.20;;;;;;;18.56;95.96;102135.16;7378680;19;20031;-74
2022/05/18 06:14:10;;;;;;;20.25;10.30;;;;;;;18.92;95.31;102133.38;7376783;19;20014;-74
2022/05/18 06:16:41;;;;;;;26.25;10.45;;;;;;;19.17;92.88;102128.91;7378312;19;20425;-73
2022/05/18 06:19:15;;;;;;;20.27;10.70;;;;;;;19.42;91.55;102137.75;7377360;19;20015;-74
2022/05/18 06:21:46;;;;;;;18.27;9.68;;;;;;;19.55;88.25;102144.84;7376333;19;20011;-73
2022/05/18 06:24:18;;;;;;;18.58;10.13;;;;;;;19.61;88.06;102142.16;7377660;19;20068;-74
2022/05/18 06:26:48;;;;;;;16.02;9.60;;;;;;;19.63;87.38;102139.47;7377899;19;20014;-74
2022/05/18 06:29:20;;;;;;;19.90;10.00;;;;;;;19.99;86.59;102141.06;7375386;19;20006;-74
2022/05/18 06:31:51;;;;;;;15.77;8.43;;;;;;;19.74;82.80;102150.97;7377257;19;20019;-73
2022/05/18 06:34:25;;;;;;;13.13;7.30;;;;;;;19.68;82.63;102154.53;7370305;19;20037;-74
2022/05/18 06:36:55;;;;;;;19.90;9.02;;;;;;;19.45;82.15;102161.69;7367512;19;20514;-73
2022/05/18 06:39:25;;;;;;;15.50;7.57;;;;;;;19.75;83.17;102163.41;7370044;19;20010;-75
2022/05/18 06:41:56;;;;;;;15.32;8.00;;;;;;;19.66;81.99;102172.28;7370840;19;20074;-73
2022/05/18 06:44:26;;;;;;;13.32;7.20;;;;;;;19.14;82.35;102179.44;7370292;19;20366;-73
2022/05/18 06:47:00;;;;;;;14.63;6.93;;;;;;;19.47;81.59;102179.41;7377755;19;20083;-74
2022/05/18 06:49:34;;;;;;;13.00;7.00;;;;;;;19.87;79.95;102172.19;7381093;19;20018;-74
2022/05/18 06:52:11;;;;;;;17.15;7.90;;;;;;;20.29;78.05;102177.31;7383441;19;20018;-73
2022/05/18 06:54:41;;;;;;;13.35;7.05;;;;;;;20.13;77.54;102180.06;7380853;19;20027;-74
2022/05/18 06:57:22;;;;;;;16.60;7.97;;;;;;;20.28;76.96;102188.88;7384762;19;20542;-73
2022/05/18 06:59:52;;;;;;;14.32;7.32;;;;;;;19.95;77.02;102184.59;7383286;19;20467;-74
2022/05/18 07:02:22;;;;;;;11.80;7.60;;;;;;;20.29;76.55;102190.63;7384018;19;20018;-74
2022/05/18 07:04:55;;;;;;;14.30;7.82;;;;;;;20.47;76.88;102196.78;7385001;19;20011;-74
2022/05/18 07:07:25;;;;;;;14.70;7.67;;;;;;;20.49;75.74;102191.44;7385316;19;20010;-74
2022/05/18 07:09:55;;;;;;;13.90;6.93;;;;;;;20.98;74.26;102194.59;7381466;19;20552;-76
2022/05/18 07:12:25;;;;;;;14.60;7.63;;;;;;;20.98;72.98;102194.59;7382645;19;20528;-75
2022/05/18 07:14:58;;;;;;;16.67;7.10;;;;;;;21.38;72.12;102202.28;7375818;19;20040;-75
2022/05/18 07:17:30;;;;;;;14.50;7.65;;;;;;;20.82;72.89;102199.19;7380788;19;20098;-75
2022/05/18 07:20:27;;;;;;;12.77;7.32;;;;;;;21.41;72.07;102189.81;7379365;19;20479;-76
2022/05/18 07:22:57;;;;;;;14.57;7.15;;;;;;;21.77;69.62;102193.84;7379123;19;20267;-75
2022/05/18 07:25:42;;;;;;;14.75;8.27;;;;;;;21.41;70.70;102188.91;7381042;19;20014;-75
2022/05/18 07:28:14;;;;;;;16.13;6.53;;;;;;;22.14;68.55;102210.31;7379267;19;20384;-75
2022/05/18 07:31:16;;;;;;;15.10;7.25;;;;;;;22.07;67.88;102205.06;7382885;19;20018;-74
2022/05/18 07:37:11;;;;;;;16.15;7.22;;;;;;;22.22;67.49;102220.91;7381459;19;20476;-74
2022/05/18 07:39:45;;;;;;;19.73;8.77;;;;;;;22.16;67.19;102229.00;7380930;19;20011;-75
2022/05/18 07:42:15;;;;;;;18.05;8.15;;;;;;;21.64;67.43;102220.72;7380840;19;20563;-74
2022/05/18 07:44:50;;;;;;;14.35;7.13;;;;;;;22.33;66.64;102223.44;7369872;19;20017;-74
2022/05/18 07:47:20;;;;;;;17.38;8.82;;;;;;;22.73;65.40;102227.31;7380656;19;20023;-73
2022/05/18 07:49:52;;;;;;;17.17;7.80;;;;;;;22.88;64.92;102231.53;7380365;19;20017;-73
2022/05/18 07:52:24;;;;;;;19.05;8.38;;;;;;;22.60;64.39;102235.53;7374790;19;20010;-72
2022/05/18 07:54:55;;;;;;;15.20;8.30;;;;;;;22.68;63.92;102233.63;7377476;19;20364;-73
2022/05/18 07:57:25;;;;;;;16.77;9.63;;;;;;;22.38;64.89;102237.63;7380751;19;20488;-73
2022/05/18 08:00:00;;;;;;;19.65;9.25;;;;;;;22.93;63.45;102234.16;7377066;19;20006;-73
2022/05/18 08:02:33;;;;;;;20.17;9.93;;;;;;;22.63;63.39;102249.75;7379642;19;20656;-73
2022/05/18 08:05:04;;;;;;;24.15;10.02;;;;;;;21.80;64.46;102247.22;7377744;19;20006;-73
2022/05/18 08:07:39;;;;;;;14.95;8.82;;;;;;;22.31;64.43;102241.28;7382940;19;20006;-73
2022/05/18 08:15:46;;;;;;;21.05;10.73;;;;;;;21.36;66.36;102262.81;7380383;19;20018;-73
2022/05/18 08:18:17;;;;;;;23.23;10.68;;;;;;;21.56;66.33;102266.16;7373603;19;20551;-72
2022/05/18 08:21:01;;;;;;;20.98;10.25;;;;;;;22.00;65.01;102262.13;7372015;19;20482;-73
2022/05/18 08:23:38;;;;;;;19.15;10.57;;;;;;;22.47;64.96;102264.25;7380902;19;20038;-73
2022/05/18 08:26:11;;;;;;;21.17;12.00;;;;;;;22.33;64.20;102267.09;7382197;19;20027;-73
2022/05/18 08:28:41;;;;;;;23.03;10.93;;;;;;;21.62;65.54;102268.78;7372677;19;20010;-73
2022/05/18 08:31:12;;;;;;;23.08;11.32;;;;;;;21.93;64.97;102271.09;7367112;19;20006;-73
2022/05/18 08:33:47;;;;;;;21.85;11.40;;;;;;;21.84;65.21;102275.63;7378257;19;20028;-71
2022/05/18 08:36:24;;;;;;;21.45;10.73;;;;;;;22.13;64.52;102277.13;7372002;19;20006;-72
2022/05/18 08:38:59;;;;;;;22.25;12.75;;;;;;;22.44;63.21;102278.53;7376889;19;20014;-72
2022/05/18 08:41:50;;;;;;;;;;;;;;;;;;;;;
2022/05/18 08:44:55;;;;;;;19.90;11.23;;;;;;;22.86;61.64;102280.66;7373141;19;20542;-74
2022/05/18 08:47:46;;;;;;;23.17;12.35;;;;;;;22.03;63.15;102281.69;7375892;19;20632;-72
2022/05/18 08:50:34;;;;;;;23.65;11.82;;;;;;;22.58;62.32;102283.69;7379107;19;20018;-72
2022/05/18 08:53:23;;;;;;;21.98;11.40;;;;;;;22.55;62.00;102286.41;7365320;19;20015;-76
2022/05/18 08:56:09;;;;;;;26.60;11.85;;;;;;;22.61;61.67;102280.97;7370446;19;20021;-77
2022/05/18 08:58:43;;;;;;;25.38;12.55;;;;;;;22.28;62.10;102282.28;7376446;19;20021;-77
2022/05/18 09:01:17;;;;;;;22.60;12.18;;;;;;;22.31;62.25;102279.59;7376856;19;20010;-76
2022/05/18 09:03:50;;;;;;;22.20;12.90;;;;;;;22.65;61.89;102279.16;7377058;19;20014;-76
2022/05/18 09:06:32;;;;;;;23.17;12.13;;;;;;;22.47;62.28;102289.19;7381718;19;20384;-76
2022/05/18 09:12:01;;;;;;;24.63;13.25;;;;;;;22.44;61.85;102293.69;7378729;19;20013;-73
2022/05/18 09:14:55;;;;;;;19.60;11.73;;;;;;;23.09;61.16;102290.06;7381424;19;20027;-72
2022/05/18 09:17:44;;;;;;;26.38;11.38;;;;;;;24.10;59.10;102289.16;7378026;19;20002;-74
2022/05/18 09:20:24;;;;;;;22.52;11.80;;;;;;;22.88;60.07;102295.75;7378803;19;20298;-75
2022/05/18 09:23:14;;;;;;;23.60;12.07;;;;;;;23.02;59.94;102283.03;7376342;19;20019;-73
2022/05/18 09:26:00;;;;;;;21.75;11.80;;;;;;;22.59;60.96;102296.16;7378667;19;20022;-77
2022/05/18 09:28:47;;;;;;;22.42;12.13;;;;;;;22.68;62.23;102298.72;7380778;19;20086;-76
2022/05/18 09:31:30;;;;;;;21.90;11.77;;;;;;;23.04;60.79;102297.28;7370256;19;20418;-77
2022/05/18 09:34:17;;;;;;;17.30;10.13;;;;;;;22.82;59.04;102298.53;7378993;19;20014;-77
2022/05/18 09:37:13;;;;;;;20.10;9.30;;;;;;;23.08;58.43;102299.00;7375854;19;20476;-75
2022/05/18 09:39:48;;;;;;;15.82;8.05;;;;;;;22.88;58.63;102300.25;7370790;19;20488;-76
2022/05/18 09:42:21;;;;;;;17.90;8.57;;;;;;;23.16;58.62;102290.84;7375760;19;20049;-78
2022/05/18 09:45:01;;;;;;;14.55;7.78;;;;;;;23.26;57.00;102296.94;7377425;19;20010;-77
2022/05/18 09:47:41;;;;;;;13.68;7.53;;;;;;;23.03;56.62;102294.63;7376940;19;20807;-77
2022/05/18 09:50:11;;;;;;;12.48;6.88;;;;;;;23.52;56.10;102301.88;7376553;19;20010;-77
2022/05/18 09:52:43;;;;;;;14.50;5.93;;;;;;;23.54;54.69;102309.00;7371952;19;20522;-76
2022/05/18 09:55:23;;;;;;;12.73;5.97;;;;;;;23.28;54.42;102300.50;7373346;19;20010;-76
2022/05/18 09:58:01;;;;;;;9.18;5.38;;;;;;;23.41;54.59;102305.63;7375508;19;20018;-77
2022/05/18 10:00:38;;;;;;;12.15;6.20;;;;;;;23.72;55.46;102291.72;7378073;19;20010;-77
2022/05/18 10:08:48;;;;;;;9.88;5.10;;;;;;;22.83;54.44;102297.63;7377014;19;20012;-77
2022/05/18 10:11:22;;;;;;;8.60;4.25;;;;;;;23.76;53.30;102302.34;7378921;19;20366;-77
2022/05/18 10:14:08;;;;;;;8.93;3.97;;;;;;;23.68;53.57;102300.72;7378948;19;20066;-76
2022/05/18 10:16:47;;;;;;;9.38;4.30;;;;;;;24.39;53.08;102312.72;7371305;19;20021;-76
2022/05/18 10:19:22;;;;;;;9.95;4.75;;;;;;;24.51;50.57;102305.34;7371502;19;20082;-75
2022/05/18 10:21:56;;;;;;;13.40;4.97;;;;;;;23.76;51.61;102312.19;7371449;19;20021;-75
2022/05/18 10:24:35;;;;;;;11.43;5.35;;;;;;;22.97;53.33;102300.09;7371989;19;20010;-75
2022/05/18 10:27:10;;;;;;;13.10;5.30;;;;;;;23.21;53.17;102304.16;7372355;19;20014;-75
2022/05/18 10:29:43;;;;;;;11.80;5.45;;;;;;;22.81;53.71;102305.69;7373392;19;20066;-75
2022/05/18 10:32:27;;;;;;;13.80;5.35;;;;;;;23.52;53.66;102308.09;7368815;19;20010;-77
2022/05/18 10:35:03;;;;;;;12.20;5.10;;;;;;;23.70;51.02;102313.19;7372706;19;20003;-72
2022/05/18 10:38:12;;;;;;;12.07;4.95;;;;;;;23.07;52.38;102302.59;7369007;19;20090;-73
2022/05/18 10:41:17;;;;;;;11.68;4.90;;;;;;;23.17;52.66;102304.22;7376679;19;20024;-73
2022/05/18 10:44:04;;;;;;;8.88;5.05;;;;;;;22.58;53.69;102309.53;7374720;19;20014;-72
2022/05/18 10:46:51;;;;;;;10.50;5.35;;;;;;;22.41;53.21;102318.66;7377182;19;20047;-72
2022/05/18 10:49:34;;;;;;;11.15;4.65;;;;;;;22.46;53.62;102324.84;7372100;19;20080;-73
2022/05/18 10:52:54;;;;;;;12.23;4.53;;;;;;;22.33;53.98;102323.22;7364280;19;20243;-73
2022/05/18 10:55:37;;;;;;;;;;;;;;;21.71;54.39;102326.56;7378004;19;20571;-72
2022/05/18 10:58:25;;;;;;;8.55;4.20;;;;;;;22.10;54.21;102325.28;7372739;19;19923;-72
2022/05/18 11:01:19;;;;;;;8.15;4.00;;;;;;;22.52;52.84;102319.41;7374066;19;20014;-73
2022/05/18 11:03:59;;;;;;;8.68;3.50;;;;;;;22.02;52.92;102321.78;7372985;19;20119;-73
2022/05/18 11:06:40;;;;;;;6.65;3.70;;;;;;;21.85;53.89;102321.94;7372509;19;20006;-73
2022/05/18 11:09:42;;;;;;;12.15;4.82;;;;;;;22.21;53.99;102315.34;7372471;19;20032;-72
2022/05/18 11:12:53;;;;;;;;;;;;;;;;;;;;;
2022/05/18 11:15:43;;;;;;;12.35;5.22;;;;;;;23.24;52.46;102310.34;7372992;19;20086;-73
2022/05/18 11:18:24;;;;;;;10.43;5.03;;;;;;;23.46;52.52;102314.44;7376105;19;20015;-73
2022/05/18 11:21:05;;;;;;;11.93;5.30;;;;;;;23.27;52.58;102314.78;7373938;19;20460;-73
2022/05/18 11:23:51;;;;;;;12.38;4.97;;;;;;;22.65;53.42;102313.91;7371182;19;20010;-73
2022/05/18 11:26:41;;;;;;;8.73;4.18;;;;;;;22.63;53.05;102310.38;7367499;19;20500;-72
2022/05/18 11:29:28;;;;;;;8.10;3.75;;;;;;;22.77;52.85;102303.03;7369645;19;20009;-74
2022/05/18 11:32:18;;;;;;;7.53;3.05;;;;;;;23.04;50.58;102309.78;7373161;19;20011;-76
2022/05/18 11:35:01;;;;;;;7.32;2.90;;;;;;;22.46;49.59;102310.59;7381449;19;20392;-77
2022/05/18 11:37:55;;;;;;;10.23;4.45;;;;;;;22.03;52.91;102313.75;7380825;19;20014;-75
2022/05/18 11:40:47;;;;;;;10.32;4.57;;;;;;;22.49;52.93;102303.41;7384689;19;20245;-74
2022/05/18 11:43:35;;;;;;;10.30;4.78;;;;;;;23.13;51.94;102302.50;7384974;19;20057;-75
2022/05/18 11:46:26;;;;;;;12.60;5.53;;;;;;;23.34;51.88;102305.75;7383512;19;20015;-76
2022/05/18 11:49:03;;;;;;;12.50;5.22;;;;;;;22.65;52.05;102305.88;7384906;19;20011;-76
2022/05/18 11:51:40;;;;;;;14.43;5.47;;;;;;;22.52;52.53;102308.72;7384255;19;20388;-74
2022/05/18 11:54:25;;;;;;;10.38;4.53;;;;;;;22.41;53.13;102302.63;7380063;19;20496;-73
2022/05/18 11:57:08;;;;;;;11.15;4.25;;;;;;;22.98;52.32;102307.19;7383695;19;20484;-74
2022/05/18 11:59:57;;;;;;;8.32;4.05;;;;;;;22.69;51.05;102318.31;7384949;19;20023;-74
2022/05/18 12:02:51;;;;;;;9.40;4.53;;;;;;;22.89;51.22;102310.91;7383596;19;20014;-75
2022/05/18 12:06:04;;;;;;;8.40;3.85;;;;;;;22.65;51.34;102309.44;7384309;19;20034;-75
2022/05/18 12:09:03;;;;;;;8.32;4.32;;;;;;;23.28;50.35;102316.56;7377969;19;20500;-76
2022/05/18 12:11:47;;;;;;;7.50;4.30;;;;;;;22.27;51.79;102317.94;7380772;19;20450;-75
2022/05/18 12:14:52;;;;;;;8.95;4.10;;;;;;;22.63;50.97;102305.91;7370267;19;20040;-74